createdAt,value
2024-03-26T00:02:58.478Z,1095.543624161074
2024-03-26T00:06:45.448Z,1148.5570469798658
2024-03-26T00:10:05.744Z,1077.0402684563758
2024-03-26T00:13:26.435Z,1129.8926174496644
2024-03-26T00:21:30.449Z,1113.7046979865772
2024-03-26T00:24:50.703Z,1174.1073825503356
2024-03-26T00:28:11.068Z,1123.9328859060402
2024-03-26T00:31:31.226Z,1116.4026845637584
2024-03-26T00:34:50.924Z,1082.3355704697988
2024-03-26T00:38:10.959Z,1098.9261744966443
2024-03-26T00:43:28.889Z,1152.3624161073826
2024-03-26T00:46:48.333Z,1111.0872483221476
2024-03-26T00:51:15.665Z,1060.3087248322147
2024-03-26T00:54:36.023Z,1044.1409395973155
2024-03-26T00:57:55.995Z,1134.4630872483222
2024-03-26T01:01:15.969Z,1076.979865771812
2024-03-26T01:04:36.210Z,947.6174496644295
2024-03-26T01:15:10.494Z,1069.510067114094
2024-03-26T01:18:30.637Z,1054.0671140939598
2024-03-26T01:29:01.869Z,1019.6778523489933
2024-03-26T01:32:21.804Z,1082.496644295302
2024-03-26T01:37:35.155Z,1026.2818791946308
2024-03-26T01:40:55.237Z,991.8724832214765
2024-03-26T01:44:15.480Z,998.0939597315436
2024-03-26T01:47:35.602Z,1029.0402684563758
2024-03-26T01:50:55.427Z,1013.9597315436241
2024-03-26T01:54:15.507Z,994.2885906040268
2024-03-26T01:57:36.141Z,1000.1879194630873
2024-03-26T02:00:56.424Z,1058.6375838926174
2024-03-26T02:04:16.168Z,1067.979865771812
2024-03-26T02:07:36.100Z,1005.6644295302013
2024-03-26T02:10:56.199Z,971.5973154362416
2024-03-26T02:14:15.851Z,1039.1275167785234
2024-03-26T02:18:42.432Z,1063.0671140939598
2024-03-26T02:22:02.710Z,1023.7248322147651
2024-03-26T02:25:22.347Z,1075.1073825503356
2024-03-26T02:28:42.423Z,1046.1342281879195
2024-03-26T02:32:01.859Z,964.3892617449665
2024-03-26T02:35:21.737Z,1074.8859060402685
2024-03-26T02:38:42.092Z,1032.986577181208
2024-03-26T02:44:06.393Z,1083.0402684563758
2024-03-26T02:47:26.425Z,1075.1275167785234
2024-03-26T02:50:46.435Z,1060.8523489932886
2024-03-26T02:54:06.053Z,1071.0402684563758
2024-03-26T02:57:26.418Z,1048.3691275167785
2024-03-26T03:00:47.006Z,1119.523489932886
2024-03-26T03:04:07.191Z,1175.496644295302
2024-03-26T03:07:26.905Z,1094.5369127516778
2024-03-26T03:10:46.682Z,1100.7382550335572
2024-03-26T03:16:40.758Z,1153.5503355704698
2024-03-26T03:22:42.216Z,1188.0604026845638
2024-03-26T03:26:02.045Z,1275.8456375838925
2024-03-26T03:29:21.826Z,1296.1610738255033
2024-03-26T03:32:42.376Z,1236.523489932886
2024-03-26T03:36:02.256Z,1380.7046979865772
2024-03-26T03:39:22.347Z,1374.523489932886
2024-03-26T03:45:03.587Z,1406.1543624161075
2024-03-26T03:50:55.599Z,1476.4429530201342
2024-03-26T03:54:15.388Z,1366.1275167785234
2024-03-26T03:57:35.225Z,1363.1275167785234
2024-03-26T04:00:55.115Z,1451.3355704697988
2024-03-26T04:04:15.262Z,1422.0
2024-03-26T04:07:35.833Z,1450.1073825503356
2024-03-26T04:10:56.198Z,1440.8859060402685
2024-03-26T04:14:16.668Z,1476.1006711409395
2024-03-26T04:30:29.892Z,1418.2953020134228
2024-03-26T04:33:49.715Z,1312.731543624161
2024-03-26T04:37:09.275Z,1367.1744966442952
2024-03-26T04:45:28.878Z,1217.4161073825503
2024-03-26T04:48:48.926Z,1159.006711409396
2024-03-26T04:52:08.588Z,1210.006711409396
2024-03-26T04:55:28.650Z,1162.9731543624162
2024-03-26T04:58:49.000Z,1169.1140939597315
2024-03-26T05:02:09.190Z,1176.1409395973155
2024-03-26T05:05:29.640Z,1203.6845637583892
2024-03-26T05:08:49.649Z,1084.6308724832215
2024-03-26T05:12:08.733Z,1136.2953020134228
2024-03-26T05:15:29.632Z,1090.1073825503356
2024-03-26T05:18:49.593Z,1031.6375838926174
2024-03-26T05:22:10.079Z,1012.5302013422819
2024-03-26T05:27:21.893Z,1019.496644295302
2024-03-26T05:30:42.161Z,949.1879194630873
2024-03-26T05:34:03.520Z,1031.2953020134228
2024-03-26T05:39:45.552Z,1004.738255033557
2024-03-26T05:47:48.277Z,955.1476510067114
2024-03-26T05:51:07.505Z,932.6375838926175
2024-03-26T05:54:27.237Z,921.9865771812081
2024-03-26T05:57:47.214Z,918.8053691275168
2024-03-26T06:01:07.164Z,915.9664429530201
2024-03-26T06:04:27.449Z,950.6375838926175
2024-03-26T06:07:47.385Z,952.8120805369127
2024-03-26T06:11:07.547Z,966.8456375838927
2024-03-26T06:14:28.353Z,964.0268456375838
2024-03-26T06:17:48.314Z,980.9798657718121
2024-03-26T06:22:28.310Z,998.255033557047
2024-03-26T06:25:48.277Z,1014.4630872483222
2024-03-26T06:29:08.209Z,1044.8859060402685
2024-03-26T06:36:43.599Z,1053.8053691275168
2024-03-26T06:42:57.939Z,992.4563758389262
2024-03-26T06:48:59.068Z,1075.4496644295302
2024-03-26T06:52:20.608Z,965.9798657718121
2024-03-26T06:56:25.577Z,962.4362416107383
2024-03-26T06:59:45.824Z,953.0939597315436
2024-03-26T07:03:05.778Z,1022.1946308724832
2024-03-26T07:06:26.242Z,915.4429530201343
2024-03-26T07:09:47.295Z,912.1610738255033
2024-03-26T07:13:06.629Z,935.6174496644295
2024-03-26T07:16:41.569Z,985.771812080537
2024-03-26T07:28:34.899Z,1037.1342281879195
2024-03-26T07:52:21.906Z,913.3691275167786
2024-03-26T07:55:42.082Z,932.2348993288591
2024-03-26T08:02:18.399Z,934.5302013422819
2024-03-26T08:07:45.603Z,883.1677852348994
2024-03-26T08:11:05.234Z,829.0268456375838
2024-03-26T08:16:43.947Z,868.228187919463
2024-03-26T08:20:03.699Z,847.2684563758389
2024-03-26T08:23:23.840Z,805.1275167785235
2024-03-26T08:26:43.927Z,794.6174496644295
2024-03-26T08:30:05.446Z,861.2013422818792
2024-03-26T08:33:25.966Z,867.5436241610738
2024-03-26T08:36:45.758Z,775.9530201342282
2024-03-26T08:40:06.147Z,783.3422818791946
2024-03-26T08:43:26.182Z,880.9530201342282
2024-03-26T08:46:46.475Z,831.6040268456376
2024-03-26T08:50:06.827Z,760.2885906040268
2024-03-26T08:53:27.504Z,781.2684563758389
2024-03-26T08:56:47.483Z,821.2953020134228
2024-03-26T09:00:07.112Z,794.6174496644295
2024-03-26T09:03:26.493Z,802.4295302013422
2024-03-26T09:06:46.029Z,816.9664429530201
2024-03-26T09:12:09.807Z,793.228187919463
2024-03-26T09:15:30.169Z,832.4093959731543
2024-03-26T09:18:50.147Z,832.489932885906
2024-03-26T09:22:09.917Z,833.6979865771812
2024-03-26T09:27:40.852Z,880.3489932885906
2024-03-26T09:31:00.822Z,843.8053691275168
2024-03-26T09:37:47.680Z,906.1208053691275
2024-03-26T09:41:07.961Z,824.9597315436241
2024-03-26T09:44:27.644Z,835.2684563758389
2024-03-26T09:47:47.559Z,840.9463087248322
2024-03-26T09:51:07.314Z,900.3624161073825
2024-03-26T09:54:27.290Z,834.6442953020135
2024-03-26T09:59:45.106Z,845.5771812080537
2024-03-26T10:03:04.998Z,868.7114093959732
2024-03-26T10:06:25.368Z,865.3489932885906
2024-03-26T10:09:45.813Z,837.7248322147651
2024-03-26T10:15:51.354Z,866.6778523489933
2024-03-26T10:19:10.685Z,830.6577181208054
2024-03-26T10:22:30.688Z,821.9597315436241
2024-03-26T10:25:49.913Z,824.255033557047
2024-03-26T10:29:10.909Z,878.1543624161073
2024-03-26T10:32:32.649Z,822.9664429530201
2024-03-26T10:35:52.444Z,830.2147651006711
2024-03-26T10:39:12.157Z,832.6107382550335
2024-03-26T10:46:17.143Z,749.2953020134228
2024-03-26T11:02:10.475Z,790.0268456375838
2024-03-26T11:05:30.700Z,809.0738255033557
2024-03-26T11:09:46.643Z,820.510067114094
2024-03-26T11:13:05.971Z,839.7986577181208
2024-03-26T11:17:25.472Z,821.8993288590603
2024-03-26T11:22:51.741Z,799.4093959731543
2024-03-26T11:28:09.274Z,892.4295302013422
2024-03-26T11:31:29.874Z,873.5436241610738
2024-03-26T11:34:49.941Z,930.6040268456376
2024-03-26T11:38:18.864Z,960.3624161073825
2024-03-26T11:41:39.192Z,931.6711409395973
2024-03-26T11:44:59.750Z,907.5302013422819
2024-03-26T11:48:19.695Z,959.6979865771812
2024-03-26T11:51:42.155Z,970.6510067114094
2024-03-26T11:55:03.406Z,1015.4496644295302
2024-03-26T11:58:23.480Z,980.2348993288591
2024-03-26T12:01:43.634Z,1037.7382550335572
2024-03-26T12:05:03.482Z,994.0671140939597
2024-03-26T12:08:23.835Z,1035.5838926174497
2024-03-26T12:13:10.812Z,1005.1812080536913
2024-03-26T12:16:34.316Z,1050.5637583892617
2024-03-26T12:30:28.233Z,1065.9463087248323
2024-03-26T12:33:48.032Z,1121.6577181208054
2024-03-26T12:37:07.949Z,1066.0671140939598
2024-03-26T12:40:28.953Z,1080.1208053691275
2024-03-26T12:43:48.790Z,1101.3221476510066
2024-03-26T12:47:08.647Z,1021.3489932885906
2024-03-26T12:50:28.910Z,1080.5637583892617
2024-03-26T12:53:48.872Z,1056.8053691275168
2024-03-26T12:57:08.076Z,1013.1744966442953
2024-03-26T13:00:27.765Z,1025.3758389261745
2024-03-26T13:03:47.422Z,1034.476510067114
2024-03-26T13:07:07.275Z,1028.8590604026845
2024-03-26T13:10:27.976Z,982.9328859060403
2024-03-26T13:13:50.037Z,1018.6308724832214
2024-03-26T13:17:11.056Z,979.9530201342282
2024-03-26T13:20:31.197Z,976.4496644295302
2024-03-26T13:23:51.304Z,992.0738255033557
2024-03-26T13:27:11.562Z,1029.765100671141
2024-03-26T13:30:37.982Z,1051.3691275167785
2024-03-26T13:36:18.066Z,1014.48322147651
2024-03-26T13:39:37.958Z,1058.1946308724832
2024-03-26T13:42:58.341Z,1038.4832214765102
2024-03-26T13:46:18.305Z,933.9060402684564
2024-03-26T13:49:38.683Z,1055.0738255033557
2024-03-26T13:53:51.590Z,989.4563758389262
2024-03-26T13:57:12.213Z,1010.0738255033557
2024-03-26T14:00:32.704Z,999.7046979865772
2024-03-26T14:03:52.944Z,1004.6375838926175
2024-03-26T14:07:12.937Z,1008.3825503355705
2024-03-26T14:10:33.008Z,1026.3624161073826
2024-03-26T14:13:53.876Z,1004.6174496644295
2024-03-26T14:17:13.647Z,1349.0536912751677
2024-03-26T14:20:33.118Z,2245.93288590604
2024-03-26T14:23:53.232Z,1454.8590604026845
2024-03-26T14:28:38.667Z,1127.3557046979865
2024-03-26T14:31:58.613Z,1025.5369127516778
2024-03-26T14:35:18.573Z,1032.4228187919464
2024-03-26T14:38:38.953Z,1035.241610738255
2024-03-26T14:42:15.681Z,1037.6375838926174
2024-03-26T14:47:41.105Z,1047.7046979865772
2024-03-26T14:51:01.080Z,1135.6711409395973
2024-03-26T14:54:20.935Z,1072.9530201342282
2024-03-26T14:57:42.010Z,1122.6845637583892
2024-03-26T15:01:01.580Z,1157.3959731543623
2024-03-26T15:04:21.257Z,1150.4496644295302
2024-03-26T15:07:41.195Z,1210.5906040268455
2024-03-26T15:11:01.335Z,1170.0604026845638
2024-03-26T15:14:21.623Z,1110.4429530201342
2024-03-26T15:17:41.394Z,1127.4161073825503
2024-03-26T15:21:00.954Z,1135.6912751677853
2024-03-26T15:24:20.889Z,1177.4496644295302
2024-03-26T15:27:41.031Z,1157.758389261745
2024-03-26T15:31:00.705Z,1112.6778523489934
2024-03-26T15:34:21.176Z,1206.020134228188
2024-03-26T15:37:41.665Z,1275.1812080536913
2024-03-26T15:41:02.039Z,1244.0939597315437
2024-03-26T15:44:21.456Z,1218.0604026845638
2024-03-26T15:47:53.178Z,1253.7382550335572
2024-03-26T15:51:13.271Z,1247.0738255033557
2024-03-26T15:54:33.028Z,1301.1543624161075
2024-03-26T16:08:31.548Z,1305.7852348993288
2024-03-26T16:11:51.490Z,1369.751677852349
2024-03-26T16:15:10.971Z,1403.5369127516778
2024-03-26T16:18:33.106Z,1376.013422818792
2024-03-26T16:21:52.855Z,1437.6644295302012
2024-03-26T16:25:12.931Z,1425.9261744966443
2024-03-26T16:28:33.054Z,1519.8120805369128
2024-03-26T16:48:54.515Z,1483.731543624161
2024-03-26T16:52:15.000Z,1551.8053691275168
2024-03-26T16:59:42.395Z,1486.7718120805368
2024-03-26T17:03:02.236Z,1522.7919463087248
2024-03-26T17:06:22.227Z,1541.9597315436242
2024-03-26T17:09:42.563Z,1655.8187919463087
2024-03-26T17:13:02.525Z,1633.731543624161
2024-03-26T17:19:21.381Z,1595.255033557047
2024-03-26T17:22:41.150Z,1716.6040268456377
2024-03-26T17:26:01.195Z,1721.8993288590605
2024-03-26T17:30:22.161Z,1768.4295302013422
2024-03-26T17:33:43.345Z,1762.5906040268455
2024-03-26T17:37:03.621Z,1770.020134228188
2024-03-26T17:40:23.270Z,1802.9395973154362
2024-03-26T17:45:07.556Z,1747.4697986577182
2024-03-26T17:49:56.950Z,1769.275167785235
2024-03-26T17:59:34.647Z,1844.1946308724832
2024-03-26T18:03:04.265Z,1764.020134228188
2024-03-26T18:06:36.274Z,1830.503355704698
2024-03-26T18:10:05.084Z,1840.993288590604
2024-03-26T18:14:26.483Z,1868.8791946308725
2024-03-26T18:17:47.028Z,1814.5167785234898
2024-03-26T18:21:07.100Z,1775.3154362416108
2024-03-26T18:24:27.572Z,1821.1812080536913
2024-03-26T18:29:03.689Z,1843.8120805369128
2024-03-26T18:32:29.551Z,1835.2147651006712
2024-03-26T18:35:56.179Z,1894.6711409395973
2024-03-26T18:39:16.462Z,1887.1208053691275
2024-03-26T18:42:37.235Z,1959.96644295302
2024-03-26T18:45:58.015Z,1897.993288590604
2024-03-26T18:49:18.189Z,1988.5771812080536
2024-03-26T18:56:55.216Z,1968.5838926174497
2024-03-26T19:08:46.765Z,2040.2617449664428
2024-03-26T19:12:06.802Z,2086.973154362416
2024-03-26T19:15:27.677Z,2152.469798657718
2024-03-26T19:18:48.379Z,2945.798657718121
2024-03-26T19:22:08.407Z,2702.2348993288592
2024-03-26T19:25:45.202Z,2300.2348993288592
2024-03-26T19:29:05.229Z,2224.711409395973
2024-03-26T19:32:26.390Z,2174.1543624161072
2024-03-26T19:35:47.195Z,2149.046979865772
2024-03-26T19:39:07.573Z,2217.422818791946
2024-03-26T19:42:28.118Z,2097.6644295302012
2024-03-26T19:45:48.608Z,2222.8791946308725
2024-03-26T19:58:54.752Z,2208.9463087248323
2024-03-26T20:02:14.684Z,2196.422818791946
2024-03-26T20:06:04.851Z,2243.8389261744965
2024-03-26T20:09:25.390Z,2264.2953020134228
2024-03-26T20:12:45.282Z,2338.6308724832215
2024-03-26T20:16:55.908Z,2248.530201342282
2024-03-26T20:20:15.768Z,2364.9664429530203
2024-03-26T20:23:36.548Z,2371.93288590604
2024-03-26T20:26:56.380Z,2361.442953020134
2024-03-26T20:30:17.100Z,2378.9395973154365
2024-03-26T20:33:55.661Z,2397.1409395973155
2024-03-26T20:37:15.820Z,2436.986577181208
2024-03-26T20:40:37.020Z,2415.201342281879
2024-03-26T20:43:56.438Z,2512.4295302013425
2024-03-26T20:47:16.516Z,2516.51677852349
2024-03-26T20:50:37.542Z,2441.718120805369
2024-03-26T20:53:57.160Z,2395.06711409396
2024-03-26T20:57:17.139Z,2461.8724832214766
2024-03-26T21:00:37.291Z,2397.3020134228186
2024-03-26T21:03:57.268Z,2462.2550335570468
2024-03-26T21:07:17.434Z,2434.5704697986575
2024-03-26T21:10:38.528Z,2548.308724832215
2024-03-26T21:13:59.047Z,2555.2147651006712
2024-03-26T21:17:57.424Z,2487.8255033557048
2024-03-26T21:21:17.413Z,2503.8724832214766
2024-03-26T21:24:38.470Z,2518.510067114094
2024-03-26T21:28:03.717Z,2553.3624161073826
2024-03-26T21:31:58.501Z,2612.3557046979868
2024-03-26T21:35:19.991Z,2534.1140939597317
2024-03-26T21:38:40.570Z,2661.221476510067
2024-03-26T21:43:15.134Z,2642.738255033557
2024-03-26T21:47:17.067Z,2511.181208053691
2024-03-26T21:51:59.602Z,2597.8791946308725
2024-03-26T21:55:20.860Z,2499.4026845637586
2024-03-26T21:58:41.361Z,2580.9261744966443
2024-03-26T22:02:01.811Z,2599.953020134228
2024-03-26T22:05:21.900Z,2593.228187919463
2024-03-26T22:08:42.660Z,2678.4161073825503
2024-03-26T22:12:03.166Z,2760.442953020134
2024-03-26T22:15:24.428Z,2714.4563758389263
2024-03-26T22:19:45.167Z,2553.241610738255
2024-03-26T22:23:05.043Z,2535.986577181208
2024-03-26T22:26:24.530Z,2702.758389261745
2024-03-26T22:29:50.905Z,2683.1073825503354
2024-03-26T22:33:11.000Z,2760.6442953020132
2024-03-26T22:41:53.778Z,2684.979865771812
2024-03-26T22:45:13.655Z,2713.228187919463
2024-03-26T22:48:34.088Z,2677.912751677852
2024-03-26T22:51:54.625Z,2667.1610738255035
2024-03-26T22:55:15.078Z,2675.738255033557
2024-03-26T23:09:58.600Z,2662.1073825503354
2024-03-26T23:13:18.546Z,2626.912751677852
2024-03-26T23:18:26.943Z,2812.4295302013425
2024-03-26T23:22:04.860Z,2689.510067114094
2024-03-26T23:26:39.972Z,2658.9664429530203
2024-03-26T23:30:00.140Z,2665.8926174496646
2024-03-26T23:33:19.903Z,2531.0738255033557
2024-03-26T23:36:40.254Z,2565.6644295302012
2024-03-26T23:40:00.205Z,2626.5906040268455
2024-03-26T23:43:20.567Z,2638.93288590604
2024-03-26T23:46:41.170Z,2633.1543624161072
2024-03-26T23:50:01.271Z,2550.5436241610737
2024-03-26T23:53:20.577Z,2600.2348993288592
2024-03-26T23:56:40.348Z,2682.5838926174497
